Time;durP1;ratioP1;P1;durP2;ratioP2;P2;SDS_P1;SDS_P2;PMS_P1;PMS_P2;Temp;Humidity;BMP_temperature;BMP_pressure;BME280_temperature;BME280_humidity;BME280_pressure;Samples;Min_cycle;Max_cycle;Signal;HPM_P1;HPM_P2
2022/09/25 00:00:33;;;;;;;0.60;0.60;;;7.90;99.90;;;;;;5072837;28;20040;-85
2022/09/25 00:02:59;;;;;;;0.68;0.68;;;7.90;99.90;;;;;;5055487;28;20071;-86
2022/09/25 00:05:24;;;;;;;0.40;0.40;;;7.90;99.90;;;;;;5049516;28;20040;-83
2022/09/25 00:07:50;;;;;;;0.43;0.43;;;7.90;99.90;;;;;;5080283;28;20048;-86
2022/09/25 00:10:19;;;;;;;0.50;0.50;;;7.90;99.90;;;;;;5069596;28;20478;-84
2022/09/25 00:12:44;;;;;;;0.57;0.57;;;7.90;99.90;;;;;;5052022;28;20053;-84
2022/09/25 00:15:10;;;;;;;0.50;0.50;;;8.00;99.90;;;;;;5067771;28;20172;-83
2022/09/25 00:17:36;;;;;;;0.40;0.40;;;8.00;99.90;;;;;;5079945;28;20445;-85
2022/09/25 00:20:02;;;;;;;0.50;0.50;;;8.00;99.90;;;;;;5086448;28;20047;-84
2022/09/25 00:22:29;;;;;;;0.50;0.50;;;8.10;99.90;;;;;;5068148;28;20127;-84
2022/09/25 00:24:56;;;;;;;0.50;0.50;;;8.00;99.90;;;;;;5062747;28;20427;-85
2022/09/25 00:27:22;;;;;;;0.40;0.40;;;8.00;99.90;;;;;;5047863;28;20182;-86
2022/09/25 00:29:48;;;;;;;0.50;0.50;;;8.20;99.90;;;;;;5049963;28;20477;-84
2022/09/25 00:32:14;;;;;;;0.50;0.50;;;8.00;99.90;;;;;;5066745;28;20044;-86
2022/09/25 00:34:40;;;;;;;0.45;0.45;;;8.00;99.90;;;;;;5052435;28;20048;-86
2022/09/25 00:37:10;;;;;;;0.50;0.50;;;7.90;99.90;;;;;;5060391;28;20063;-85
2022/09/25 00:39:38;;;;;;;0.50;0.50;;;7.80;99.90;;;;;;5065148;28;20044;-86
2022/09/25 00:42:04;;;;;;;0.47;0.47;;;7.70;99.90;;;;;;5042738;28;20040;-86
2022/09/25 00:44:45;;;;;;;0.52;0.52;;;7.60;99.90;;;;;;5068350;28;20032;-84
2022/09/25 00:47:14;;;;;;;0.50;0.50;;;7.60;99.90;;;;;;5052107;28;20504;-86
2022/09/25 00:49:40;;;;;;;0.40;0.40;;;7.60;99.90;;;;;;5073881;28;20097;-84
2022/09/25 00:52:11;;;;;;;0.30;0.30;;;7.60;99.90;;;;;;5064392;28;20052;-83
2022/09/25 00:54:44;;;;;;;0.43;0.43;;;7.70;99.90;;;;;;5050243;28;20050;-83
2022/09/25 00:57:16;;;;;;;0.50;0.50;;;7.70;99.90;;;;;;5061777;28;20122;-85
2022/09/25 00:59:55;;;;;;;0.50;0.50;;;7.80;99.90;;;;;;5062062;28;20032;-84
2022/09/25 01:02:30;;;;;;;0.40;0.40;;;7.80;99.90;;;;;;5068850;28;20048;-85
2022/09/25 01:05:01;;;;;;;0.50;0.50;;;7.80;99.90;;;;;;5080375;28;20163;-84
2022/09/25 01:07:30;;;;;;;0.60;0.60;;;7.90;99.90;;;;;;5041815;28;21934;-84
2022/09/25 01:09:58;;;;;;;0.30;0.30;;;7.90;99.90;;;;;;5067717;28;20386;-85
2022/09/25 01:12:24;;;;;;;0.40;0.40;;;7.90;99.90;;;;;;5033988;28;20041;-83
2022/09/25 01:14:50;;;;;;;0.60;0.60;;;7.80;99.90;;;;;;5049787;28;20047;-84
2022/09/25 01:17:39;;;;;;;0.60;0.60;;;7.70;99.90;;;;;;5058682;28;20044;-84
2022/09/25 01:20:33;;;;;;;0.50;0.50;;;7.60;99.90;;;;;;5071436;28;20055;-82
2022/09/25 01:23:01;;;;;;;0.40;0.40;;;7.60;99.90;;;;;;5049921;28;20057;-84
2022/09/25 01:25:56;;;;;;;0.40;0.40;;;7.70;99.90;;;;;;5061438;28;20047;-85
2022/09/25 01:28:30;;;;;;;0.40;0.40;;;7.70;99.90;;;;;;5065411;28;20048;-85
2022/09/25 01:31:03;;;;;;;0.40;0.40;;;7.60;99.90;;;;;;5067501;28;20119;-85
2022/09/25 01:33:45;;;;;;;0.50;0.50;;;7.50;99.90;;;;;;5070687;28;20041;-85
2022/09/25 01:36:25;;;;;;;0.60;0.60;;;7.50;99.90;;;;;;5059105;28;20053;-85
2022/09/25 01:38:54;;;;;;;0.47;0.47;;;7.60;99.90;;;;;;5065111;28;20093;-86
2022/09/25 01:41:30;;;;;;;0.60;0.60;;;7.60;99.90;;;;;;5071152;28;20111;-85
2022/09/25 01:44:17;;;;;;;0.50;0.50;;;7.60;99.90;;;;;;5085571;28;20079;-84
2022/09/25 01:46:47;;;;;;;0.47;0.47;;;7.60;99.90;;;;;;5064996;28;20036;-87
2022/09/25 01:49:31;;;;;;;0.50;0.50;;;7.60;99.90;;;;;;5066556;28;20049;-86
2022/09/25 01:52:00;;;;;;;0.60;0.60;;;7.60;99.90;;;;;;5053768;28;20055;-83
2022/09/25 01:54:36;;;;;;;0.50;0.50;;;7.60;99.90;;;;;;5070117;28;20044;-85
2022/09/25 01:57:20;;;;;;;1.05;1.05;;;7.60;99.90;;;;;;5062549;28;20040;-82
2022/09/25 01:59:57;;;;;;;0.50;0.50;;;7.90;99.90;;;;;;5078606;28;20067;-82
2022/09/25 02:02:27;;;;;;;0.50;0.50;;;7.60;99.90;;;;;;5054536;28;20127;-84
2022/09/25 02:05:12;;;;;;;0.50;0.50;;;7.60;99.90;;;;;;5069395;28;20048;-86
2022/09/25 02:07:47;;;;;;;0.47;0.47;;;7.50;99.90;;;;;;5030372;28;20436;-83
2022/09/25 02:10:26;;;;;;;0.40;0.40;;;7.50;99.90;;;;;;5049139;28;20135;-85
2022/09/25 02:12:57;;;;;;;0.43;0.43;;;8.00;99.90;;;;;;5057413;28;20203;-85
2022/09/25 02:15:38;;;;;;;0.50;0.50;;;7.60;99.90;;;;;;5042230;28;20049;-85
2022/09/25 02:21:18;;;;;;;0.65;0.65;;;7.40;99.90;;;;;;5067637;28;20110;-85
2022/09/25 02:23:53;;;;;;;0.50;0.50;;;7.30;99.90;;;;;;5067112;28;20041;-86
2022/09/25 02:26:28;;;;;;;0.47;0.47;;;7.20;99.90;;;;;;5057313;28;20091;-86
2022/09/25 02:28:55;;;;;;;0.40;0.40;;;7.00;99.90;;;;;;5057626;28;20518;-85
2022/09/25 02:31:49;;;;;;;0.50;0.50;;;7.00;99.90;;;;;;5055553;28;20440;-84
2022/09/25 02:34:15;;;;;;;0.50;0.50;;;7.10;99.90;;;;;;5024579;28;20185;-86
2022/09/25 02:36:43;;;;;;;0.50;0.50;;;7.20;99.90;;;;;;5065222;28;20545;-86
2022/09/25 02:39:11;;;;;;;0.60;0.60;;;7.30;99.90;;;;;;5058223;28;20101;-85
2022/09/25 02:41:55;;;;;;;0.60;0.60;;;7.40;99.90;;;;;;5064943;28;20517;-85
2022/09/25 02:44:58;;;;;;;0.50;0.50;;;7.40;99.90;;;;;;5069508;28;20063;-85
2022/09/25 02:47:34;;;;;;;0.50;0.50;;;7.50;99.90;;;;;;5071521;28;20048;-85
2022/09/25 02:50:28;;;;;;;0.45;0.45;;;7.60;99.90;;;;;;5042008;28;20491;-84
2022/09/25 02:53:31;;;;;;;0.50;0.50;;;7.70;99.90;;;;;;5053907;28;20376;-85
2022/09/25 02:56:09;;;;;;;0.50;0.50;;;7.60;99.90;;;;;;5064407;28;20047;-86
2022/09/25 02:58:51;;;;;;;0.40;0.40;;;7.50;99.90;;;;;;5066088;28;20040;-84
2022/09/25 03:01:19;;;;;;;0.40;0.40;;;7.40;99.90;;;;;;5063141;28;20033;-85
2022/09/25 03:03:47;;;;;;;0.45;0.45;;;7.30;99.90;;;;;;5064661;28;20044;-86
2022/09/25 03:06:13;;;;;;;0.50;0.50;;;7.30;99.90;;;;;;5079318;28;20047;-84
2022/09/25 03:08:44;;;;;;;0.40;0.40;;;7.30;99.90;;;;;;5071578;28;20051;-85
2022/09/25 03:11:13;;;;;;;0.60;0.60;;;7.30;99.90;;;;;;5067889;28;20075;-85
2022/09/25 03:13:40;;;;;;;0.50;0.50;;;7.30;99.90;;;;;;5060030;28;20095;-86
2022/09/25 03:16:22;;;;;;;0.40;0.40;;;7.40;99.90;;;;;;5080579;28;20124;-86
2022/09/25 03:18:48;;;;;;;0.60;0.60;;;7.40;99.90;;;;;;5067808;28;20042;-84
2022/09/25 03:21:14;;;;;;;0.40;0.40;;;7.40;99.90;;;;;;5045868;28;20040;-85
2022/09/25 03:23:40;;;;;;;0.40;0.40;;;7.30;99.90;;;;;;5064210;28;20091;-84
2022/09/25 03:26:06;;;;;;;0.43;0.43;;;7.30;99.90;;;;;;5068435;28;20502;-84
2022/09/25 03:28:32;;;;;;;0.47;0.47;;;7.30;99.90;;;;;;5055903;28;20055;-84
2022/09/25 03:31:04;;;;;;;0.47;0.47;;;7.30;99.90;;;;;;5057577;28;20043;-84
2022/09/25 03:33:36;;;;;;;0.40;0.40;;;7.50;99.90;;;;;;5049551;28;20120;-84
2022/09/25 03:36:04;;;;;;;0.50;0.50;;;8.10;99.90;;;;;;5068293;28;20043;-84
2022/09/25 03:38:30;;;;;;;0.50;0.50;;;7.80;99.90;;;;;;5071921;28;20486;-84
2022/09/25 03:40:56;;;;;;;0.50;0.50;;;7.90;99.90;;;;;;5067532;28;20557;-85
2022/09/25 03:43:22;;;;;;;0.45;0.45;;;8.00;99.90;;;;;;5052540;28;20123;-84
2022/09/25 03:45:47;;;;;;;0.50;0.50;;;8.00;99.90;;;;;;5072932;28;20460;-84
2022/09/25 03:48:13;;;;;;;0.50;0.50;;;8.00;99.90;;;;;;5055290;28;20814;-84
2022/09/25 03:50:40;;;;;;;0.60;0.60;;;8.00;99.90;;;;;;5048348;28;20068;-86
2022/09/25 03:53:06;;;;;;;0.57;0.57;;;8.00;99.90;;;;;;5032125;28;20080;-84
2022/09/25 03:55:33;;;;;;;0.47;0.47;;;7.90;99.90;;;;;;5052839;28;20044;-83
2022/09/25 03:57:59;;;;;;;0.40;0.40;;;7.90;99.90;;;;;;5062104;28;20111;-83
2022/09/25 04:00:25;;;;;;;0.55;0.55;;;7.80;99.90;;;;;;5046976;28;20128;-82
2022/09/25 04:02:50;;;;;;;0.40;0.40;;;7.80;99.90;;;;;;5050686;28;20036;-84
2022/09/25 04:05:17;;;;;;;0.40;0.40;;;7.80;99.90;;;;;;5048156;28;20044;-87
2022/09/25 04:07:43;;;;;;;0.52;0.52;;;7.80;99.90;;;;;;5054736;28;20040;-85
2022/09/25 04:10:09;;;;;;;0.60;0.60;;;7.70;99.90;;;;;;5062924;28;20071;-86
2022/09/25 04:12:35;;;;;;;0.50;0.50;;;7.80;99.90;;;;;;5055504;28;20135;-86
2022/09/25 04:15:02;;;;;;;;;;;7.60;99.90;;;;;;5067992;28;20422;-85
2022/09/25 04:17:28;;;;;;;0.32;0.32;;;7.60;99.90;;;;;;5070284;28;20274;-86
2022/09/25 04:19:54;;;;;;;0.45;0.45;;;7.50;99.90;;;;;;5074880;28;20048;-85
2022/09/25 04:22:19;;;;;;;0.43;0.43;;;7.30;99.90;;;;;;5072203;28;20486;-85
2022/09/25 04:24:49;;;;;;;0.38;0.38;;;7.30;99.90;;;;;;5046935;28;20048;-83
2022/09/25 04:27:22;;;;;;;0.50;0.50;;;7.40;99.90;;;;;;5064374;28;20560;-83
2022/09/25 04:29:48;;;;;;;0.70;0.70;;;7.40;99.90;;;;;;5066830;28;20037;-83
2022/09/25 04:34:59;;;;;;;0.40;0.40;;;7.30;99.90;;;;;;5065089;28;20060;-85
2022/09/25 04:37:25;;;;;;;0.50;0.50;;;7.30;99.90;;;;;;5080288;28;20040;-85
2022/09/25 04:39:56;;;;;;;0.50;0.50;;;7.20;99.90;;;;;;5065683;28;20045;-86
2022/09/25 04:42:25;;;;;;;0.60;0.60;;;6.90;99.90;;;;;;5048147;28;20086;-84
2022/09/25 04:44:54;;;;;;;0.52;0.52;;;6.90;99.90;;;;;;5041221;28;20561;-85
2022/09/25 04:47:25;;;;;;;0.50;0.50;;;6.80;99.90;;;;;;5064956;28;20474;-84
2022/09/25 04:49:51;;;;;;;0.52;0.52;;;6.60;99.90;;;;;;5048467;28;20047;-85
2022/09/25 04:52:19;;;;;;;0.60;0.60;;;7.10;99.90;;;;;;5090570;28;20044;-84
2022/09/25 04:54:46;;;;;;;0.40;0.40;;;6.50;99.90;;;;;;5072531;28;20052;-85
2022/09/25 04:57:16;;;;;;;0.40;0.40;;;6.50;99.90;;;;;;5052020;28;20056;-85
2022/09/25 04:59:42;;;;;;;0.50;0.50;;;6.40;99.90;;;;;;5062758;28;20462;-85
2022/09/25 05:02:08;;;;;;;0.52;0.52;;;6.30;99.90;;;;;;5072863;28;20097;-84
2022/09/25 05:04:34;;;;;;;0.50;0.50;;;6.40;99.90;;;;;;5057799;28;20123;-85
2022/09/25 05:06:59;;;;;;;0.47;0.47;;;6.80;99.90;;;;;;5067989;28;20123;-85
2022/09/25 05:09:25;;;;;;;0.50;0.50;;;6.20;99.90;;;;;;5048272;28;20067;-85
2022/09/25 05:11:51;;;;;;;0.60;0.60;;;6.40;99.90;;;;;;5066510;28;20124;-85
2022/09/25 05:14:17;;;;;;;0.60;0.60;;;6.20;99.90;;;;;;5055717;28;20112;-84
2022/09/25 05:16:44;;;;;;;0.47;0.47;;;6.00;99.90;;;;;;5066055;28;20114;-83
2022/09/25 05:19:10;;;;;;;0.50;0.50;;;6.00;99.90;;;;;;5028563;28;20519;-84
2022/09/25 05:21:35;;;;;;;0.60;0.60;;;6.10;99.90;;;;;;5053677;28;20097;-86
2022/09/25 05:24:01;;;;;;;0.40;0.40;;;6.20;99.90;;;;;;5068745;28;20092;-85
2022/09/25 05:26:29;;;;;;;0.60;0.60;;;6.20;99.90;;;;;;5048550;28;20052;-86
2022/09/25 05:28:55;;;;;;;0.55;0.55;;;6.30;99.90;;;;;;5040467;28;20045;-83
2022/09/25 05:31:21;;;;;;;0.55;0.55;;;6.30;99.90;;;;;;5064072;28;20426;-86
2022/09/25 05:33:47;;;;;;;0.50;0.50;;;6.30;99.90;;;;;;5062437;28;20029;-84
2022/09/25 05:36:13;;;;;;;0.50;0.50;;;6.30;99.90;;;;;;5087361;28;20032;-85
2022/09/25 05:38:40;;;;;;;0.50;0.50;;;6.40;99.90;;;;;;5062681;28;20052;-86
2022/09/25 05:41:08;;;;;;;0.60;0.60;;;6.80;99.90;;;;;;5056903;28;20033;-84
2022/09/25 05:43:38;;;;;;;0.50;0.50;;;6.30;99.90;;;;;;5054669;28;20440;-85
2022/09/25 05:46:05;;;;;;;0.45;0.45;;;6.60;99.90;;;;;;5057253;28;20052;-84
2022/09/25 05:48:32;;;;;;;0.60;0.60;;;6.40;99.90;;;;;;5066972;28;20666;-84
2022/09/25 05:50:58;;;;;;;0.68;0.68;;;6.40;99.90;;;;;;5064638;28;20462;-85
2022/09/25 05:53:24;;;;;;;0.40;0.40;;;6.40;99.90;;;;;;5052479;28;20076;-86
2022/09/25 05:55:56;;;;;;;0.40;0.40;;;6.50;99.90;;;;;;5045545;28;20052;-84
2022/09/25 05:58:23;;;;;;;0.60;0.60;;;6.60;99.90;;;;;;5063448;28;20128;-86
2022/09/25 06:00:50;;;;;;;0.50;0.50;;;6.60;99.90;;;;;;5058085;28;20452;-86
2022/09/25 06:03:16;;;;;;;0.47;0.47;;;6.60;99.90;;;;;;5067736;28;20053;-86
2022/09/25 06:05:45;;;;;;;0.60;0.60;;;6.70;99.90;;;;;;5073467;28;20044;-87
2022/09/25 06:08:12;;;;;;;0.60;0.60;;;6.70;99.90;;;;;;5072774;28;20095;-85
2022/09/25 06:10:38;;;;;;;0.50;0.50;;;6.70;99.90;;;;;;5061746;28;20052;-86
2022/09/25 06:13:05;;;;;;;0.60;0.60;;;7.30;99.90;;;;;;5061514;28;20044;-85
2022/09/25 06:15:36;;;;;;;0.50;0.50;;;6.90;99.90;;;;;;5049964;28;20071;-85
2022/09/25 06:18:07;;;;;;;0.40;0.40;;;6.80;99.90;;;;;;5053904;28;20076;-84
2022/09/25 06:20:34;;;;;;;0.50;0.50;;;6.80;99.90;;;;;;5032082;28;20037;-81
2022/09/25 06:23:00;;;;;;;0.50;0.50;;;7.00;99.90;;;;;;5062130;28;20072;-84
2022/09/25 06:25:29;;;;;;;0.60;0.60;;;7.00;99.90;;;;;;5039281;28;20438;-83
2022/09/25 06:27:56;;;;;;;0.55;0.55;;;7.10;99.90;;;;;;5036176;28;20083;-82
2022/09/25 06:30:26;;;;;;;0.85;0.85;;;7.20;99.90;;;;;;5063532;28;20047;-84
2022/09/25 06:32:58;;;;;;;0.43;0.43;;;7.30;99.90;;;;;;5032563;28;20324;-83
2022/09/25 06:35:25;;;;;;;0.43;0.43;;;7.40;99.90;;;;;;5070299;28;20111;-85
2022/09/25 06:37:51;;;;;;;3.92;2.25;;;7.60;99.90;;;;;;5075855;28;20391;-85
2022/09/25 06:40:20;;;;;;;0.50;0.50;;;7.80;99.90;;;;;;5058507;28;20082;-83
2022/09/25 06:42:45;;;;;;;0.40;0.40;;;7.80;99.90;;;;;;5027874;28;20553;-85
2022/09/25 06:45:11;;;;;;;0.95;0.85;;;7.90;99.90;;;;;;5064332;28;20047;-85
2022/09/25 06:47:37;;;;;;;0.50;0.50;;;8.00;99.90;;;;;;5054675;28;20047;-85
2022/09/25 06:50:03;;;;;;;0.80;0.80;;;8.20;99.90;;;;;;5068703;28;20071;-86
2022/09/25 06:52:28;;;;;;;;;;;8.30;99.90;;;;;;5060073;28;20071;-84
2022/09/25 06:54:54;;;;;;;0.40;0.40;;;8.40;99.90;;;;;;5053256;28;19971;-83
2022/09/25 06:57:20;;;;;;;0.40;0.40;;;8.50;99.90;;;;;;5078357;28;20054;-84
2022/09/25 06:59:45;;;;;;;0.50;0.50;;;8.60;99.90;;;;;;5054927;28;20048;-85
2022/09/25 07:04:58;;;;;;;0.40;0.40;;;8.90;99.90;;;;;;5070426;28;20102;-84
2022/09/25 07:07:24;;;;;;;0.52;0.52;;;9.00;99.90;;;;;;5032293;28;20044;-83
2022/09/25 07:09:50;;;;;;;0.43;0.43;;;9.20;99.90;;;;;;5066759;28;20052;-85
2022/09/25 07:12:20;;;;;;;0.40;0.40;;;9.30;99.90;;;;;;5065492;28;20077;-85
2022/09/25 07:14:46;;;;;;;0.40;0.40;;;9.40;99.90;;;;;;5066705;28;20419;-86
2022/09/25 07:17:13;;;;;;;0.60;0.60;;;7.80;99.90;;;;;;5070711;28;20123;-83
2022/09/25 07:19:39;;;;;;;0.30;0.30;;;9.70;99.90;;;;;;5054492;28;20045;-83
2022/09/25 07:22:04;;;;;;;;;;;9.90;99.90;;;;;;5063500;28;20102;-85
2022/09/25 07:24:39;;;;;;;1.23;1.23;;;10.10;99.90;;;;;;5064790;28;19920;-82
2022/09/25 07:27:05;;;;;;;0.43;0.43;;;10.40;99.90;;;;;;5073737;28;20047;-82
2022/09/25 07:29:31;;;;;;;0.55;0.55;;;;;;;;;;5081220;28;20048;-82
2022/09/25 07:31:58;;;;;;;;;;;10.80;99.90;;;;;;5049948;28;20397;-84
2022/09/25 07:34:26;;;;;;;0.30;0.30;;;10.90;99.90;;;;;;5062980;28;19966;-84
2022/09/25 07:36:53;;;;;;;0.50;0.50;;;11.00;99.90;;;;;;5043868;28;20083;-83
2022/09/25 07:39:20;;;;;;;0.40;0.40;;;11.20;99.90;;;;;;5073326;28;20036;-84
2022/09/25 07:41:46;;;;;;;0.30;0.30;;;11.30;99.90;;;;;;5070438;28;20043;-83
2022/09/25 07:44:15;;;;;;;0.22;0.22;;;11.40;99.90;;;;;;5068694;28;21619;-85
2022/09/25 07:46:43;;;;;;;0.40;0.40;;;11.50;99.90;;;;;;5069316;28;20293;-83
2022/09/25 07:49:08;;;;;;;0.20;0.20;;;11.60;99.90;;;;;;5036181;28;20037;-83
2022/09/25 07:51:34;;;;;;;0.30;0.30;;;11.80;99.90;;;;;;5039626;28;20102;-82
2022/09/25 07:54:00;;;;;;;0.32;0.32;;;11.90;99.90;;;;;;5051138;28;20048;-84
2022/09/25 07:56:26;;;;;;;0.20;0.20;;;12.10;99.90;;;;;;5038089;28;20044;-83
2022/09/25 07:58:53;;;;;;;0.32;0.32;;;12.30;99.90;;;;;;5044361;28;20569;-83
2022/09/25 08:01:20;;;;;;;0.50;0.50;;;12.50;99.90;;;;;;5051850;28;20102;-83
2022/09/25 08:03:45;;;;;;;0.32;0.32;;;12.80;99.90;;;;;;5081738;28;20055;-83
2022/09/25 08:06:12;;;;;;;0.60;0.60;;;13.00;99.90;;;;;;5062169;28;20040;-84
2022/09/25 08:08:42;;;;;;;0.30;0.30;;;13.20;99.90;;;;;;5064695;28;20043;-83
2022/09/25 08:11:13;;;;;;;0.20;0.20;;;13.40;99.90;;;;;;5076922;28;20059;-83
2022/09/25 08:13:40;;;;;;;0.30;0.30;;;13.60;99.90;;;;;;5063498;28;20076;-83
2022/09/25 08:16:12;;;;;;;1.85;0.60;;;13.80;99.90;;;;;;5053817;28;20036;-83
2022/09/25 08:18:44;;;;;;;0.30;0.30;;;14.00;99.90;;;;;;5050602;28;20040;-83
2022/09/25 08:21:15;;;;;;;0.20;0.20;;;14.20;99.90;;;;;;5060905;28;20427;-83
2022/09/25 08:23:42;;;;;;;0.30;0.30;;;14.40;99.90;;;;;;5048760;28;20044;-84
2022/09/25 08:26:08;;;;;;;0.17;0.17;;;14.60;99.90;;;;;;5061805;28;20067;-83
2022/09/25 08:28:34;;;;;;;0.30;0.30;;;14.80;99.90;;;;;;5076375;28;20036;-84
2022/09/25 08:31:03;;;;;;;0.40;0.40;;;14.90;99.90;;;;;;5071693;28;20111;-83
2022/09/25 08:33:30;;;;;;;0.30;0.30;;;15.00;99.90;;;;;;5071122;28;20044;-84
2022/09/25 08:35:58;;;;;;;0.30;0.30;;;14.90;99.90;;;;;;5035727;28;20058;-83
2022/09/25 08:38:25;;;;;;;0.93;0.85;;;14.70;99.90;;;;;;5065162;28;20080;-83
2022/09/25 08:41:06;;;;;;;0.40;0.40;;;14.30;99.90;;;;;;5074455;28;20036;-83
2022/09/25 08:43:36;;;;;;;0.30;0.30;;;13.70;99.90;;;;;;5063391;28;20075;-83
2022/09/25 08:49:02;;;;;;;0.40;0.40;;;12.90;99.90;;;;;;5069409;28;20056;-85
2022/09/25 08:51:42;;;;;;;0.40;0.40;;;12.60;99.90;;;;;;5069448;28;20497;-85
2022/09/25 08:54:16;;;;;;;0.40;0.40;;;12.40;99.90;;;;;;5058707;28;20398;-83
2022/09/25 08:56:42;;;;;;;0.30;0.30;;;12.20;99.90;;;;;;5064724;28;20161;-82
2022/09/25 08:59:24;;;;;;;0.30;0.30;;;12.10;99.90;;;;;;5068055;28;20033;-85
2022/09/25 09:01:54;;;;;;;0.40;0.40;;;11.90;99.90;;;;;;5080653;28;20185;-85
2022/09/25 09:04:31;;;;;;;0.30;0.30;;;11.80;99.90;;;;;;5065823;28;20040;-81
2022/09/25 09:07:21;;;;;;;0.30;0.30;;;11.70;99.90;;;;;;5087808;28;20058;-84
2022/09/25 09:10:27;;;;;;;0.30;0.30;;;11.50;99.90;;;;;;5089752;28;20113;-84
2022/09/25 09:13:21;;;;;;;0.63;0.63;;;11.40;99.90;;;;;;5071930;28;20052;-81
2022/09/25 09:15:53;;;;;;;0.32;0.32;;;11.40;99.90;;;;;;5059799;28;20037;-83
2022/09/25 09:18:27;;;;;;;0.40;0.40;;;11.40;99.90;;;;;;5048841;28;20040;-82
2022/09/25 09:21:01;;;;;;;0.40;0.40;;;11.50;99.90;;;;;;5061329;28;20048;-80
2022/09/25 09:23:46;;;;;;;0.40;0.40;;;11.50;99.90;;;;;;5057840;28;20049;-79
2022/09/25 09:26:42;;;;;;;0.40;0.40;;;11.50;99.90;;;;;;5061734;28;20132;-83
2022/09/25 09:29:28;;;;;;;0.40;0.40;;;11.60;99.90;;;;;;5058738;28;20056;-82
2022/09/25 09:32:14;;;;;;;0.30;0.30;;;11.60;99.90;;;;;;5042073;28;20057;-85
2022/09/25 09:35:05;;;;;;;1.15;0.70;;;11.60;99.90;;;;;;5069462;28;20567;-81
2022/09/25 09:37:53;;;;;;;0.75;0.50;;;11.60;99.90;;;;;;5068866;28;20039;-82
2022/09/25 09:40:34;;;;;;;0.28;0.28;;;11.60;99.90;;;;;;5061196;28;20025;-82
2022/09/25 09:43:20;;;;;;;0.30;0.30;;;11.60;99.90;;;;;;5050275;28;20055;-82
2022/09/25 09:46:03;;;;;;;0.40;0.40;;;11.60;99.90;;;;;;5047973;28;20051;-82
2022/09/25 09:48:47;;;;;;;0.28;0.28;;;11.80;99.90;;;;;;5067395;28;20041;-85
2022/09/25 09:51:35;;;;;;;0.32;0.32;;;11.90;99.90;;;;;;5063938;28;20493;-81
2022/09/25 09:54:34;;;;;;;0.30;0.30;;;12.10;99.90;;;;;;5057591;28;20040;-85
2022/09/25 09:57:16;;;;;;;0.30;0.30;;;12.30;99.90;;;;;;5061432;28;20147;-83
2022/09/25 09:59:52;;;;;;;0.30;0.30;;;12.40;99.90;;;;;;5066214;28;20830;-79
2022/09/25 10:02:27;;;;;;;0.30;0.30;;;12.50;99.90;;;;;;5062532;28;20118;-81
2022/09/25 10:04:54;;;;;;;0.35;0.35;;;12.60;99.90;;;;;;5068732;28;20067;-81
2022/09/25 10:07:22;;;;;;;0.30;0.30;;;12.80;99.90;;;;;;5069865;28;20040;-84
2022/09/25 10:09:53;;;;;;;0.57;0.57;;;13.00;99.90;;;;;;5070354;28;20068;-84
2022/09/25 10:12:28;;;;;;;0.40;0.40;;;13.20;99.90;;;;;;5069856;28;20048;-80
2022/09/25 10:14:56;;;;;;;0.40;0.40;;;13.50;99.90;;;;;;5052076;28;20045;-82
2022/09/25 10:17:22;;;;;;;0.30;0.30;;;13.70;99.90;;;;;;5070999;28;20052;-80
2022/09/25 10:19:54;;;;;;;0.30;0.30;;;13.80;99.90;;;;;;5056023;28;20405;-82
2022/09/25 10:22:25;;;;;;;0.28;0.28;;;13.90;99.90;;;;;;5066351;28;20032;-83
2022/09/25 10:25:02;;;;;;;0.28;0.28;;;14.00;99.90;;;;;;5059121;28;20116;-83
2022/09/25 10:27:37;;;;;;;0.30;0.30;;;14.00;99.90;;;;;;5062804;28;20041;-81
2022/09/25 10:30:07;;;;;;;0.30;0.30;;;14.10;99.90;;;;;;5072996;28;20051;-81
2022/09/25 10:32:42;;;;;;;0.30;0.30;;;14.20;99.90;;;;;;5089003;28;20431;-82
2022/09/25 10:35:21;;;;;;;0.30;0.30;;;14.30;99.90;;;;;;5075659;28;20444;-85
2022/09/25 10:37:56;;;;;;;0.20;0.20;;;14.60;99.90;;;;;;5075654;28;20043;-85
2022/09/25 10:40:33;;;;;;;0.30;0.30;;;14.80;99.90;;;;;;5064145;28;20044;-82
2022/09/25 10:43:15;;;;;;;2.05;1.35;;;15.10;99.90;;;;;;5072639;28;20037;-83
2022/09/25 10:45:42;;;;;;;0.10;0.10;;;15.30;99.90;;;;;;5059179;28;20036;-83
2022/09/25 10:51:16;;;;;;;0.30;0.30;;;15.40;99.90;;;;;;5069592;28;20526;-82
2022/09/25 10:54:15;;;;;;;0.30;0.30;;;15.50;99.90;;;;;;5072668;28;20041;-80
2022/09/25 10:56:41;;;;;;;0.30;0.30;;;15.60;99.90;;;;;;5088060;28;20032;-83
2022/09/25 10:59:19;;;;;;;0.20;0.20;;;15.70;99.90;;;;;;5079828;28;20039;-81
2022/09/25 11:01:46;;;;;;;0.20;0.20;;;15.60;99.90;;;;;;5072284;28;20045;-86
2022/09/25 11:04:28;;;;;;;0.20;0.20;;;15.60;99.90;;;;;;5087417;28;20179;-80
2022/09/25 11:07:06;;;;;;;0.30;0.30;;;15.50;99.90;;;;;;5071101;28;20040;-81
2022/09/25 11:09:48;;;;;;;0.30;0.30;;;15.50;99.90;;;;;;5084458;28;20174;-82
2022/09/25 11:12:26;;;;;;;0.20;0.20;;;15.30;99.90;;;;;;5055726;28;20157;-82
2022/09/25 11:15:01;;;;;;;0.82;0.82;;;15.20;99.90;;;;;;5085627;28;20512;-81
2022/09/25 11:17:41;;;;;;;0.40;0.40;;;15.20;99.90;;;;;;5080733;28;20047;-81
2022/09/25 11:20:41;;;;;;;0.22;0.22;;;15.20;99.90;;;;;;5125978;27;20403;-83
2022/09/25 11:23:43;;;;;;;0.20;0.20;;;15.40;99.90;;;;;;5107527;28;20039;-80
2022/09/25 11:26:17;;;;;;;0.20;0.20;;;15.60;99.90;;;;;;5101614;28;20389;-83
2022/09/25 11:29:07;;;;;;;0.10;0.10;;;15.90;99.90;;;;;;5101215;28;20047;-83
2022/09/25 11:31:50;;;;;;;0.45;0.45;;;16.00;99.90;;;;;;5090496;28;20051;-82
2022/09/25 11:34:53;;;;;;;0.20;0.20;;;16.10;99.90;;;;;;5105862;28;20500;-82
2022/09/25 11:37:29;;;;;;;0.20;0.20;;;16.20;99.90;;;;;;5100639;28;20036;-81
2022/09/25 11:43:12;;;;;;;0.17;0.17;;;16.20;99.90;;;;;;5093126;28;20123;-81
2022/09/25 11:46:03;;;;;;;0.20;0.20;;;16.20;99.90;;;;;;5098954;28;20055;-81
2022/09/25 11:48:47;;;;;;;0.20;0.20;;;16.40;99.90;;;;;;5094008;28;20155;-81
2022/09/25 11:51:38;;;;;;;0.38;0.38;;;16.60;99.90;;;;;;5113486;28;20059;-79
2022/09/25 11:54:22;;;;;;;0.30;0.30;;;16.80;99.90;;;;;;5090667;28;20055;-80
2022/09/25 11:57:10;;;;;;;0.25;0.25;;;16.80;99.90;;;;;;5100265;28;20044;-81
2022/09/25 12:00:03;;;;;;;0.30;0.30;;;16.70;99.90;;;;;;5092724;28;20049;-80
2022/09/25 12:03:05;;;;;;;0.30;0.30;;;16.60;99.90;;;;;;5087072;28;20031;-82
2022/09/25 12:06:11;;;;;;;0.20;0.20;;;16.60;99.90;;;;;;5093751;28;20079;-81
2022/09/25 12:08:57;;;;;;;0.30;0.30;;;16.40;99.90;;;;;;5084404;28;20052;-81
2022/09/25 12:11:55;;;;;;;0.25;0.25;;;16.20;99.90;;;;;;5096230;28;20497;-81
2022/09/25 12:14:44;;;;;;;0.20;0.20;;;16.10;99.90;;;;;;5108059;28;20044;-81
2022/09/25 12:17:33;;;;;;;2.05;1.67;;;15.90;99.90;;;;;;5093407;28;20500;-81
2022/09/25 12:20:33;;;;;;;0.20;0.20;;;15.70;99.90;;;;;;5103709;28;20051;-80
2022/09/25 12:23:28;;;;;;;0.30;0.30;;;15.60;99.90;;;;;;5096088;28;20055;-80
2022/09/25 12:26:23;;;;;;;0.30;0.30;;;15.60;99.90;;;;;;5097175;28;20055;-81
2022/09/25 12:29:04;;;;;;;0.45;0.45;;;15.80;99.90;;;;;;5078869;28;20051;-81
2022/09/25 12:32:03;;;;;;;0.20;0.20;;;16.10;99.90;;;;;;5085501;28;20039;-80
2022/09/25 12:35:04;;;;;;;0.35;0.35;;;16.30;99.90;;;;;;5087535;28;20093;-81
2022/09/25 12:37:49;;;;;;;0.20;0.20;;;16.30;99.90;;;;;;5084914;28;20121;-82
2022/09/25 12:40:28;;;;;;;0.30;0.30;;;16.20;99.90;;;;;;5075350;28;20098;-83
2022/09/25 12:42:57;;;;;;;0.20;0.20;;;16.20;99.90;;;;;;5084725;28;20692;-82
2022/09/25 12:45:32;;;;;;;0.28;0.28;;;16.30;99.90;;;;;;5084618;28;20086;-82
2022/09/25 12:48:18;;;;;;;0.20;0.20;;;16.50;99.90;;;;;;5080065;28;20115;-82
2022/09/25 12:50:58;;;;;;;0.20;0.20;;;16.50;99.90;;;;;;5083645;28;20149;-82
2022/09/25 12:53:57;;;;;;;0.20;0.20;;;16.60;99.90;;;;;;5064864;28;20078;-81
2022/09/25 12:56:40;;;;;;;0.30;0.30;;;16.80;99.90;;;;;;5082732;28;20040;-83
2022/09/25 12:59:12;;;;;;;0.20;0.20;;;16.90;99.90;;;;;;5088309;28;20051;-83
2022/09/25 13:02:15;;;;;;;0.63;0.63;;;16.90;99.90;;;;;;5075390;28;20385;-83
2022/09/25 13:05:01;;;;;;;0.30;0.30;;;17.00;99.90;;;;;;5070539;28;20066;-83
2022/09/25 13:07:50;;;;;;;0.40;0.40;;;16.80;99.90;;;;;;5095404;28;20090;-83
2022/09/25 13:10:30;;;;;;;0.20;0.20;;;16.60;99.90;;;;;;5078215;28;20444;-83
2022/09/25 13:12:59;;;;;;;0.20;0.20;;;16.40;99.90;;;;;;5062525;28;20039;-83
2022/09/25 13:15:31;;;;;;;0.20;0.20;;;16.40;99.90;;;;;;5086975;28;20060;-83
2022/09/25 13:17:58;;;;;;;0.28;0.28;;;16.50;99.90;;;;;;5089036;28;20062;-83
2022/09/25 13:20:30;;;;;;;0.30;0.30;;;16.70;99.90;;;;;;5083173;28;20101;-83
2022/09/25 13:23:14;;;;;;;0.20;0.20;;;17.10;99.90;;;;;;5084812;28;20498;-84
2022/09/25 13:25:50;;;;;;;0.40;0.40;;;17.60;99.90;;;;;;5091750;28;20501;-83
2022/09/25 13:28:25;;;;;;;0.25;0.25;;;18.10;99.90;;;;;;5074783;28;20050;-83
2022/09/25 13:31:03;;;;;;;0.22;0.22;;;18.50;99.90;;;;;;5089928;28;20599;-83
2022/09/25 13:33:41;;;;;;;0.20;0.20;;;18.90;99.90;;;;;;5093227;28;20036;-83
2022/09/25 13:36:43;;;;;;;0.10;0.10;;;19.10;99.90;;;;;;5088996;28;20551;-82
2022/09/25 13:42:26;;;;;;;0.25;0.25;;;19.00;99.90;;;;;;5080561;28;20056;-83
2022/09/25 13:45:20;;;;;;;0.28;0.28;;;18.80;99.90;;;;;;5087874;28;20044;-83
2022/09/25 13:47:55;;;;;;;0.30;0.30;;;18.90;99.90;;;;;;5086574;28;20044;-83